createdAt,value
2023-01-20T00:02:16.673Z,82.21
2023-01-20T00:04:43.401Z,82.41
2023-01-20T00:07:10.202Z,82.72
2023-01-20T00:09:37.080Z,82.50
2023-01-20T00:12:04.703Z,83.26
2023-01-20T00:14:32.738Z,83.51
2023-01-20T00:16:59.367Z,83.92
2023-01-20T00:19:26.263Z,83.74
2023-01-20T00:21:53.158Z,83.91
2023-01-20T00:24:19.882Z,83.70
2023-01-20T00:26:46.600Z,83.50
2023-01-20T00:29:13.326Z,84.35
2023-01-20T00:31:41.588Z,84.40
2023-01-20T00:34:10.082Z,84.50
2023-01-20T00:36:36.977Z,84.60
2023-01-20T00:39:04.845Z,85.07
2023-01-20T00:41:31.693Z,85.33
2023-01-20T00:43:58.511Z,85.44
2023-01-20T00:46:25.116Z,85.38
2023-01-20T00:48:53.296Z,85.47
2023-01-20T00:51:20.225Z,86.22
2023-01-20T00:53:46.913Z,85.98
2023-01-20T00:56:13.623Z,85.75
2023-01-20T00:58:42.688Z,85.67
2023-01-20T01:01:09.430Z,86.02
2023-01-20T01:03:36.253Z,86.04
2023-01-20T01:06:09.809Z,86.37
2023-01-20T01:08:36.883Z,86.59
2023-01-20T01:11:04.740Z,86.60
2023-01-20T01:13:31.717Z,86.55
2023-01-20T01:15:58.791Z,86.28
2023-01-20T01:18:25.612Z,86.00
2023-01-20T01:20:52.293Z,85.68
2023-01-20T01:23:20.484Z,86.06
2023-01-20T01:25:47.157Z,86.44
2023-01-20T01:28:13.858Z,86.33
2023-01-20T01:30:40.591Z,85.77
2023-01-20T01:33:07.249Z,85.63
2023-01-20T01:35:33.958Z,85.37
2023-01-20T01:38:00.624Z,85.58
2023-01-20T01:40:28.663Z,86.00
2023-01-20T01:42:55.340Z,86.60
2023-01-20T01:45:25.735Z,87.27
2023-01-20T01:47:59.341Z,87.50
2023-01-20T01:50:31.073Z,87.74
2023-01-20T01:52:57.898Z,87.74
2023-01-20T01:55:30.871Z,87.91
2023-01-20T01:57:59.604Z,88.44
2023-01-20T02:00:26.842Z,88.11
2023-01-20T02:02:55.217Z,88.03
2023-01-20T02:05:24.155Z,87.97
2023-01-20T02:07:52.163Z,87.46
2023-01-20T02:10:19.009Z,87.02
2023-01-20T02:12:49.486Z,86.91
2023-01-20T02:15:17.016Z,86.96
2023-01-20T02:17:57.631Z,86.65
2023-01-20T02:20:43.568Z,87.94
2023-01-20T02:23:26.235Z,88.53
2023-01-20T02:26:14.214Z,87.98
2023-01-20T02:29:11.875Z,88.21
2023-01-20T02:32:12.599Z,87.73
2023-01-20T02:34:45.975Z,87.28
2023-01-20T02:37:16.550Z,87.52
2023-01-20T02:39:54.980Z,86.40
2023-01-20T02:42:25.575Z,86.35
2023-01-20T02:44:57.670Z,85.99
2023-01-20T02:47:32.200Z,86.21
2023-01-20T02:50:05.865Z,86.63
2023-01-20T02:52:36.304Z,86.55
2023-01-20T02:55:08.284Z,86.44
2023-01-20T02:57:41.951Z,85.90
2023-01-20T03:00:15.738Z,85.69
2023-01-20T03:02:48.109Z,85.71
2023-01-20T03:05:20.277Z,85.58
2023-01-20T03:07:50.499Z,85.85
2023-01-20T03:10:21.568Z,85.72
2023-01-20T03:12:52.094Z,86.02
2023-01-20T03:15:23.694Z,85.66
2023-01-20T03:17:52.351Z,85.39
2023-01-20T03:20:19.037Z,85.58
2023-01-20T03:22:45.940Z,85.73
2023-01-20T03:25:14.505Z,85.90
2023-01-20T03:27:41.804Z,85.90
2023-01-20T03:30:13.676Z,86.19
2023-01-20T03:32:43.507Z,87.93
2023-01-20T03:35:13.285Z,87.65
2023-01-20T03:37:40.130Z,86.66
2023-01-20T03:40:08.494Z,85.87
2023-01-20T03:42:43.938Z,86.20
2023-01-20T03:45:16.961Z,86.81
2023-01-20T03:47:51.668Z,87.42
2023-01-20T03:50:34.386Z,87.67
2023-01-20T03:53:10.448Z,87.42
2023-01-20T03:55:43.227Z,87.34
2023-01-20T03:58:13.997Z,87.87
2023-01-20T04:00:45.720Z,87.56
2023-01-20T04:03:17.894Z,87.19
2023-01-20T04:05:48.493Z,87.30
2023-01-20T04:08:17.609Z,87.03
2023-01-20T04:10:48.414Z,87.16
2023-01-20T04:13:15.697Z,87.38
2023-01-20T04:15:44.176Z,87.07
2023-01-20T04:18:13.275Z,87.34
2023-01-20T04:20:40.495Z,87.22
2023-01-20T04:23:13.658Z,87.55
2023-01-20T04:25:40.341Z,87.48
2023-01-20T04:28:06.989Z,87.65
2023-01-20T04:30:33.766Z,87.54
2023-01-20T04:33:00.471Z,87.34
2023-01-20T04:35:27.350Z,87.49
2023-01-20T04:37:54.038Z,87.36
2023-01-20T04:40:22.059Z,87.27
2023-01-20T04:42:49.356Z,87.42
2023-01-20T04:45:17.469Z,87.79
2023-01-20T04:47:44.811Z,88.17
2023-01-20T04:50:12.962Z,88.80
2023-01-20T04:52:39.735Z,88.55
2023-01-20T04:55:07.290Z,88.61
2023-01-20T04:57:35.348Z,88.63
2023-01-20T05:00:02.074Z,88.11
2023-01-20T05:02:28.796Z,88.14
2023-01-20T05:04:55.516Z,88.15
2023-01-20T05:07:22.308Z,87.99
2023-01-20T05:09:48.960Z,88.05
2023-01-20T05:12:15.599Z,88.61
2023-01-20T05:14:43.687Z,88.96
2023-01-20T05:17:10.469Z,89.16
2023-01-20T05:19:37.098Z,89.14
2023-01-20T05:22:03.733Z,89.20
2023-01-20T05:24:30.411Z,89.58
2023-01-20T05:27:00.292Z,89.68
2023-01-20T05:29:27.182Z,89.48
2023-01-20T05:31:55.636Z,89.40
2023-01-20T05:34:22.571Z,89.48
2023-01-20T05:36:51.610Z,89.70
2023-01-20T05:39:18.730Z,88.97
2023-01-20T05:41:45.500Z,89.01
2023-01-20T05:44:12.232Z,88.37
2023-01-20T05:46:39.032Z,88.24
2023-01-20T05:49:07.125Z,87.98
2023-01-20T05:51:33.826Z,88.36
2023-01-20T05:54:00.541Z,89.11
2023-01-20T05:56:27.249Z,89.80
2023-01-20T05:58:54.666Z,90.28
2023-01-20T06:01:21.580Z,90.33
2023-01-20T06:03:48.272Z,90.75
2023-01-20T06:06:16.657Z,91.28
2023-01-20T06:08:43.762Z,91.51
2023-01-20T06:11:10.673Z,91.43
2023-01-20T06:13:37.355Z,91.00
2023-01-20T06:16:07.164Z,91.41
2023-01-20T06:18:34.059Z,92.20
2023-01-20T06:21:00.822Z,92.83
2023-01-20T06:23:28.999Z,93.34
2023-01-20T06:26:00.514Z,93.57
2023-01-20T06:28:27.457Z,93.81
2023-01-20T06:30:59.916Z,93.98
2023-01-20T06:33:26.974Z,93.66
2023-01-20T06:35:54.127Z,93.82
2023-01-20T06:38:20.781Z,93.61
2023-01-20T06:40:48.852Z,93.31
2023-01-20T06:43:15.547Z,92.87
2023-01-20T06:45:42.464Z,92.50
2023-01-20T06:48:09.433Z,92.53
2023-01-20T06:50:36.147Z,92.70
2023-01-20T06:53:02.848Z,93.03
2023-01-20T06:55:29.595Z,93.36
2023-01-20T06:57:57.637Z,93.47
2023-01-20T07:00:24.775Z,93.88
2023-01-20T07:02:51.527Z,93.94
2023-01-20T07:05:18.189Z,93.67
2023-01-20T07:07:44.926Z,93.82
2023-01-20T07:10:12.467Z,94.02
2023-01-20T07:12:39.141Z,94.09
2023-01-20T07:15:08.322Z,94.05
2023-01-20T07:17:34.965Z,94.26
2023-01-20T07:20:01.625Z,94.43
2023-01-20T07:22:28.246Z,94.18
2023-01-20T07:24:54.930Z,94.03
2023-01-20T07:27:21.720Z,93.85
2023-01-20T07:29:48.364Z,93.80
2023-01-20T07:32:16.552Z,93.89
2023-01-20T07:34:43.197Z,94.42
2023-01-20T07:37:09.824Z,94.14
2023-01-20T07:39:36.724Z,94.52
2023-01-20T07:42:03.612Z,94.38
2023-01-20T07:44:30.318Z,94.29
2023-01-20T07:46:57.585Z,94.46
2023-01-20T07:49:25.662Z,95.02
2023-01-20T07:51:52.338Z,95.27
2023-01-20T07:54:18.988Z,95.09
2023-01-20T07:56:45.653Z,95.08
2023-01-20T07:59:12.313Z,95.22
2023-01-20T08:01:39.113Z,95.33
2023-01-20T08:04:05.849Z,95.11
2023-01-20T08:06:33.931Z,94.54
2023-01-20T08:09:01.702Z,93.95
2023-01-20T08:11:28.601Z,94.05
2023-01-20T08:13:55.402Z,94.24
2023-01-20T08:16:22.253Z,94.13
2023-01-20T08:18:49.029Z,94.54
2023-01-20T08:21:19.729Z,94.68
2023-01-20T08:23:47.934Z,94.74
2023-01-20T08:26:15.040Z,94.84
2023-01-20T08:28:41.972Z,95.32
2023-01-20T08:31:10.929Z,95.49
2023-01-20T08:33:38.407Z,95.75
2023-01-20T08:36:07.447Z,95.82
2023-01-20T08:38:34.887Z,96.10
2023-01-20T08:41:06.767Z,95.75
2023-01-20T08:43:33.522Z,96.20
2023-01-20T08:46:00.778Z,96.46
2023-01-20T08:48:27.452Z,96.81
2023-01-20T08:50:54.422Z,97.29
2023-01-20T08:53:21.479Z,97.64
2023-01-20T08:55:55.561Z,98.24
2023-01-20T08:58:25.388Z,98.68
2023-01-20T09:00:52.356Z,99.20
2023-01-20T09:03:19.361Z,99.65
2023-01-20T09:05:46.532Z,100.00
2023-01-20T09:08:13.885Z,100.00
2023-01-20T09:10:40.617Z,100.00
2023-01-20T09:13:07.402Z,100.00
2023-01-20T09:15:35.649Z,99.73
2023-01-20T09:18:02.465Z,99.83
2023-01-20T09:20:29.244Z,100.00
2023-01-20T09:22:56.448Z,100.00
2023-01-20T09:25:23.105Z,100.00
2023-01-20T09:27:49.909Z,100.00
2023-01-20T09:30:17.111Z,100.00
2023-01-20T09:32:45.204Z,99.82
2023-01-20T09:35:11.914Z,98.82
2023-01-20T09:37:38.772Z,98.86
2023-01-20T09:40:09.504Z,99.37
2023-01-20T09:42:52.703Z,99.57
2023-01-20T09:45:27.878Z,98.64
2023-01-20T09:48:05.052Z,98.17
2023-01-20T09:50:45.741Z,98.79
2023-01-20T09:53:27.853Z,99.58
2023-01-20T09:55:57.723Z,100.00
2023-01-20T09:58:34.850Z,99.21
2023-01-20T10:01:10.769Z,98.10
2023-01-20T10:03:46.137Z,96.76
2023-01-20T10:06:20.496Z,97.66
2023-01-20T10:09:05.004Z,97.49
2023-01-20T10:11:37.707Z,97.51
2023-01-20T10:14:13.571Z,98.15
2023-01-20T10:16:45.521Z,97.24
2023-01-20T10:19:21.348Z,96.25
2023-01-20T10:21:53.499Z,94.77
2023-01-20T10:24:28.389Z,92.32
2023-01-20T10:27:01.476Z,89.53
2023-01-20T10:29:34.295Z,89.34
2023-01-20T10:32:02.924Z,88.48
2023-01-20T10:34:41.885Z,88.73
2023-01-20T10:37:11.098Z,87.66
2023-01-20T10:39:46.783Z,85.16
2023-01-20T10:42:15.156Z,83.38
2023-01-20T10:44:42.299Z,83.26
2023-01-20T10:47:17.682Z,83.16
2023-01-20T10:50:14.333Z,83.63
2023-01-20T10:52:52.163Z,84.56
2023-01-20T10:55:29.620Z,84.88
2023-01-20T10:58:01.918Z,83.98
2023-01-20T11:00:31.541Z,83.25
2023-01-20T11:03:00.981Z,80.84
2023-01-20T11:05:31.178Z,80.96
2023-01-20T11:08:00.427Z,82.18
2023-01-20T11:10:29.841Z,81.37
2023-01-20T11:12:59.948Z,81.07
2023-01-20T11:15:29.705Z,78.67
2023-01-20T11:18:29.897Z,77.66
2023-01-20T11:21:01.434Z,76.72
2023-01-20T11:23:36.613Z,76.12
2023-01-20T11:26:06.606Z,77.71
2023-01-20T11:28:43.848Z,78.27
2023-01-20T11:31:11.399Z,79.51
2023-01-20T11:33:38.240Z,79.18
2023-01-20T11:36:16.612Z,78.41
2023-01-20T11:38:45.929Z,77.47
2023-01-20T11:41:19.679Z,75.48
2023-01-20T11:43:47.118Z,76.61
2023-01-20T11:46:22.768Z,76.10
2023-01-20T11:48:50.172Z,72.91
2023-01-20T11:51:22.297Z,70.83
2023-01-20T11:53:49.148Z,69.53
2023-01-20T11:56:20.112Z,66.87
2023-01-20T11:58:52.969Z,64.98
2023-01-20T12:01:23.376Z,65.01
2023-01-20T12:04:21.697Z,62.99
2023-01-20T12:06:55.976Z,62.20
2023-01-20T12:09:30.339Z,60.38
2023-01-20T12:12:02.242Z,59.51
2023-01-20T12:14:34.144Z,57.67
2023-01-20T12:17:12.017Z,53.10
2023-01-20T12:19:50.458Z,52.49
2023-01-20T12:22:24.570Z,51.87
2023-01-20T12:24:58.452Z,50.96
2023-01-20T12:27:28.222Z,49.70
2023-01-20T12:29:59.486Z,48.83
2023-01-20T12:32:26.212Z,48.79
2023-01-20T12:34:52.902Z,47.46
2023-01-20T12:37:28.341Z,46.18
2023-01-20T12:40:20.302Z,46.77
2023-01-20T12:43:03.637Z,46.45
2023-01-20T12:45:43.518Z,44.13
2023-01-20T12:48:25.776Z,42.49
2023-01-20T12:51:03.893Z,42.78
2023-01-20T12:53:48.859Z,43.15
2023-01-20T12:56:25.384Z,41.92
2023-01-20T12:59:01.043Z,41.18
2023-01-20T13:01:58.223Z,39.46
2023-01-20T13:04:57.456Z,38.65
2023-01-20T13:07:46.856Z,39.47
2023-01-20T13:10:26.310Z,38.79
2023-01-20T13:13:00.282Z,38.67
2023-01-20T13:15:30.087Z,38.85
2023-01-20T13:18:12.011Z,38.95
2023-01-20T13:20:40.510Z,39.51
2023-01-20T13:23:11.156Z,40.03
2023-01-20T13:25:41.123Z,38.76
2023-01-20T13:28:16.006Z,37.35
2023-01-20T13:30:45.316Z,38.22
2023-01-20T13:33:17.937Z,38.48
2023-01-20T13:35:47.781Z,38.27
2023-01-20T13:38:23.214Z,37.65
2023-01-20T13:40:56.731Z,37.99
2023-01-20T13:43:50.262Z,38.89
2023-01-20T13:46:48.357Z,39.51
2023-01-20T13:49:47.531Z,38.96
2023-01-20T13:52:14.401Z,38.89
2023-01-20T13:54:47.904Z,37.76
2023-01-20T13:57:46.226Z,38.62
2023-01-20T14:00:18.334Z,38.98
2023-01-20T14:02:49.188Z,36.50
2023-01-20T14:05:24.861Z,36.93
2023-01-20T14:07:51.956Z,36.13
2023-01-20T14:10:19.040Z,36.03
2023-01-20T14:12:47.118Z,36.24
2023-01-20T14:15:34.050Z,36.07
2023-01-20T14:18:01.120Z,37.08
2023-01-20T14:20:28.995Z,38.71
2023-01-20T14:23:14.838Z,41.15
2023-01-20T14:25:41.682Z,39.04
2023-01-20T14:28:19.763Z,38.95
2023-01-20T14:30:47.925Z,39.14
2023-01-20T14:33:16.493Z,41.39
2023-01-20T14:35:43.357Z,40.43
2023-01-20T14:38:17.265Z,39.30
2023-01-20T14:40:44.280Z,38.18
2023-01-20T14:43:18.695Z,39.36
2023-01-20T14:45:49.598Z,40.59
2023-01-20T14:48:32.661Z,42.09
2023-01-20T14:51:00.589Z,42.69
2023-01-20T14:53:27.318Z,42.79
2023-01-20T14:56:01.664Z,42.84
2023-01-20T14:58:29.012Z,42.57
2023-01-20T15:01:00.609Z,41.36
2023-01-20T15:03:29.453Z,42.09
2023-01-20T15:05:59.357Z,38.86
2023-01-20T15:08:27.209Z,38.27
2023-01-20T15:11:26.853Z,38.41
2023-01-20T15:14:10.414Z,37.33
2023-01-20T15:16:50.518Z,37.09
2023-01-20T15:19:28.339Z,38.83
2023-01-20T15:21:56.580Z,39.01
2023-01-20T15:24:24.527Z,39.50
2023-01-20T15:26:53.110Z,39.33
2023-01-20T15:29:21.109Z,38.96
2023-01-20T15:31:49.571Z,39.58
2023-01-20T15:34:16.247Z,39.27
2023-01-20T15:36:44.391Z,40.24
2023-01-20T15:39:11.778Z,41.83
2023-01-20T15:41:38.553Z,42.73
2023-01-20T15:44:05.918Z,43.70
2023-01-20T15:46:33.065Z,44.50
2023-01-20T15:49:01.646Z,44.41
2023-01-20T15:51:28.434Z,45.13
2023-01-20T15:53:55.122Z,46.20
2023-01-20T15:56:25.467Z,47.01
2023-01-20T15:58:52.687Z,48.10
2023-01-20T16:01:20.765Z,49.12
2023-01-20T16:03:47.465Z,49.70
2023-01-20T16:06:17.707Z,50.57
2023-01-20T16:08:46.572Z,51.26
2023-01-20T16:11:13.638Z,51.72
2023-01-20T16:13:40.608Z,52.21
2023-01-20T16:16:12.255Z,52.78
2023-01-20T16:18:39.020Z,53.79
2023-01-20T16:21:06.156Z,54.78
2023-01-20T16:23:34.241Z,56.20
2023-01-20T16:26:00.958Z,57.31
2023-01-20T16:28:27.903Z,58.11
2023-01-20T16:30:54.864Z,58.63
2023-01-20T16:33:22.950Z,59.83
2023-01-20T16:35:51.016Z,61.25
2023-01-20T16:38:19.424Z,62.49
2023-01-20T16:40:50.131Z,63.87
2023-01-20T16:43:17.440Z,65.18
2023-01-20T16:45:44.693Z,66.47
2023-01-20T16:48:11.505Z,67.83
2023-01-20T16:50:38.644Z,69.33
2023-01-20T16:53:05.326Z,70.36
2023-01-20T16:55:32.007Z,69.91
2023-01-20T16:58:00.119Z,69.84
2023-01-20T17:00:26.809Z,70.19
2023-01-20T17:02:53.633Z,70.58
2023-01-20T17:05:21.463Z,71.45
2023-01-20T17:07:48.758Z,72.28
2023-01-20T17:10:15.833Z,73.33
2023-01-20T17:12:42.706Z,74.02
2023-01-20T17:15:12.005Z,74.59
2023-01-20T17:17:38.734Z,74.69
2023-01-20T17:20:06.860Z,74.23
2023-01-20T17:22:33.525Z,74.39
2023-01-20T17:25:00.269Z,74.78
2023-01-20T17:27:26.976Z,75.31
2023-01-20T17:29:53.714Z,75.43
2023-01-20T17:32:21.805Z,75.92
2023-01-20T17:34:48.604Z,76.07
2023-01-20T17:37:15.331Z,75.77
2023-01-20T17:39:41.993Z,75.94
2023-01-20T17:42:08.702Z,76.27
2023-01-20T17:44:35.341Z,76.07
2023-01-20T17:47:02.037Z,75.59
2023-01-20T17:49:30.123Z,75.81
2023-01-20T17:51:56.960Z,75.89
2023-01-20T17:54:23.658Z,76.25
2023-01-20T17:56:50.340Z,75.35
2023-01-20T17:59:17.974Z,75.18
2023-01-20T18:01:44.644Z,75.14
2023-01-20T18:04:11.368Z,76.10
2023-01-20T18:06:39.467Z,77.67
2023-01-20T18:09:07.412Z,79.32
2023-01-20T18:11:36.009Z,80.66
2023-01-20T18:14:03.992Z,80.66
2023-01-20T18:16:33.105Z,80.05
2023-01-20T18:19:00.366Z,79.58
2023-01-20T18:21:28.793Z,79.01
2023-01-20T18:23:57.845Z,78.88
2023-01-20T18:26:26.537Z,78.83
2023-01-20T18:28:54.468Z,79.02
2023-01-20T18:31:23.537Z,78.76
2023-01-20T18:33:51.776Z,79.28
2023-01-20T18:36:20.386Z,79.65
2023-01-20T18:38:49.904Z,79.59
2023-01-20T18:41:18.672Z,79.76
2023-01-20T18:43:45.440Z,80.45
2023-01-20T18:46:12.236Z,81.10
2023-01-20T18:48:39.821Z,81.14
2023-01-20T18:51:07.946Z,81.23
2023-01-20T18:53:34.656Z,81.25
2023-01-20T18:56:02.272Z,81.56
2023-01-20T18:58:30.378Z,82.72
2023-01-20T19:01:03.294Z,82.85
2023-01-20T19:03:30.069Z,82.71
2023-01-20T19:06:03.083Z,83.52
2023-01-20T19:08:29.763Z,83.24
2023-01-20T19:11:00.346Z,83.61
2023-01-20T19:13:27.096Z,84.27
2023-01-20T19:15:55.723Z,84.82
2023-01-20T19:18:22.832Z,84.96
2023-01-20T19:20:49.601Z,84.40
2023-01-20T19:23:17.019Z,83.72
2023-01-20T19:25:43.757Z,83.80
2023-01-20T19:28:10.731Z,84.15
2023-01-20T19:30:37.772Z,84.41
2023-01-20T19:33:05.918Z,84.76
2023-01-20T19:35:33.805Z,84.93
2023-01-20T19:38:00.553Z,85.67
2023-01-20T19:40:27.251Z,86.55
2023-01-20T19:42:54.114Z,87.11
2023-01-20T19:45:21.037Z,87.58
2023-01-20T19:47:47.751Z,87.88
2023-01-20T19:50:16.565Z,87.75
2023-01-20T19:52:43.344Z,87.13
2023-01-20T19:55:10.017Z,87.12
2023-01-20T19:57:37.003Z,87.15
2023-01-20T20:00:04.387Z,86.71
2023-01-20T20:02:31.033Z,85.96
2023-01-20T20:04:57.744Z,85.32
2023-01-20T20:07:25.857Z,85.74
2023-01-20T20:09:52.584Z,86.43
2023-01-20T20:12:19.315Z,86.92
2023-01-20T20:14:46.137Z,86.79
2023-01-20T20:17:12.780Z,86.83
2023-01-20T20:19:39.583Z,86.99
2023-01-20T20:22:06.280Z,87.08
2023-01-20T20:24:34.427Z,88.19
2023-01-20T20:27:01.081Z,88.02
2023-01-20T20:29:28.034Z,88.25
2023-01-20T20:31:54.777Z,88.44
2023-01-20T20:34:21.631Z,87.89
2023-01-20T20:36:48.405Z,86.99
2023-01-20T20:39:17.548Z,86.19
2023-01-20T20:41:46.042Z,85.61
2023-01-20T20:44:12.864Z,85.24
2023-01-20T20:46:39.707Z,84.94
2023-01-20T20:49:06.489Z,85.19
2023-01-20T20:51:34.288Z,85.16
2023-01-20T20:54:02.727Z,85.61
2023-01-20T20:56:30.620Z,86.63
2023-01-20T20:59:02.473Z,85.91
2023-01-20T21:01:31.257Z,85.67
2023-01-20T21:03:58.384Z,85.66
2023-01-20T21:06:25.389Z,85.72
2023-01-20T21:08:52.507Z,85.60
2023-01-20T21:11:19.267Z,86.27
2023-01-20T21:13:46.010Z,86.46
2023-01-20T21:16:16.761Z,86.63
2023-01-20T21:18:43.506Z,86.94
2023-01-20T21:21:12.846Z,87.67
2023-01-20T21:23:40.059Z,87.77
2023-01-20T21:26:10.066Z,87.45
2023-01-20T21:28:36.851Z,87.80
2023-01-20T21:31:06.880Z,88.00
2023-01-20T21:33:36.825Z,88.21
2023-01-20T21:36:06.265Z,88.08
2023-01-20T21:38:32.996Z,87.88
2023-01-20T21:41:04.140Z,87.78
2023-01-20T21:43:31.512Z,87.62
2023-01-20T21:45:58.286Z,87.93
2023-01-20T21:48:25.050Z,88.18
2023-01-20T21:50:53.194Z,88.36
2023-01-20T21:53:19.897Z,88.52
2023-01-20T21:55:46.570Z,89.00
2023-01-20T21:58:13.379Z,89.77
2023-01-20T22:00:40.209Z,90.25
2023-01-20T22:03:06.930Z,90.63
2023-01-20T22:05:33.635Z,90.73
2023-01-20T22:08:01.741Z,90.99
2023-01-20T22:10:28.410Z,91.21
2023-01-20T22:12:55.250Z,91.13
2023-01-20T22:15:21.967Z,90.90
2023-01-20T22:17:48.798Z,91.06
2023-01-20T22:20:16.216Z,91.49
2023-01-20T22:22:43.088Z,91.76
2023-01-20T22:25:11.259Z,92.04
2023-01-20T22:27:37.943Z,92.03
2023-01-20T22:30:05.536Z,91.77
2023-01-20T22:32:32.271Z,91.30
2023-01-20T22:34:59.004Z,90.66
2023-01-20T22:37:25.697Z,90.00
2023-01-20T22:39:52.390Z,88.82
2023-01-20T22:42:20.632Z,87.96
2023-01-20T22:44:47.309Z,87.96
2023-01-20T22:47:13.988Z,87.89
2023-01-20T22:49:40.668Z,87.84
2023-01-20T22:52:07.370Z,87.46
2023-01-20T22:54:34.074Z,86.93
2023-01-20T22:57:00.811Z,85.92
2023-01-20T22:59:29.060Z,85.12
2023-01-20T23:01:55.856Z,84.99
2023-01-20T23:04:23.290Z,84.93
2023-01-20T23:06:49.997Z,85.56
2023-01-20T23:09:16.656Z,86.29
2023-01-20T23:11:43.383Z,87.39
2023-01-20T23:14:10.243Z,87.82
2023-01-20T23:16:38.590Z,88.00
2023-01-20T23:19:05.897Z,87.82
2023-01-20T23:21:32.693Z,87.98
2023-01-20T23:23:59.463Z,88.15
2023-01-20T23:26:28.160Z,88.17
2023-01-20T23:28:56.050Z,89.04
2023-01-20T23:31:24.281Z,89.34
2023-01-20T23:33:53.959Z,88.90
2023-01-20T23:36:21.829Z,87.84
2023-01-20T23:38:48.731Z,87.43
2023-01-20T23:41:16.242Z,87.30
2023-01-20T23:43:43.264Z,86.93
2023-01-20T23:46:10.483Z,86.76
2023-01-20T23:48:38.104Z,86.88
2023-01-20T23:51:07.040Z,86.88
2023-01-20T23:53:37.587Z,86.33
2023-01-20T23:56:07.051Z,85.95
2023-01-20T23:58:33.798Z,86.29
